createdAt,value
2022-11-15T00:00:59.011Z,21.38
2022-11-15T00:03:27.940Z,19.17
2022-11-15T00:05:54.497Z,24.25
2022-11-15T00:08:21.132Z,23.13
2022-11-15T00:11:00.905Z,20.63
2022-11-15T00:13:28.516Z,20.50
2022-11-15T00:15:59.055Z,21.05
2022-11-15T00:18:25.883Z,19.00
2022-11-15T00:20:52.231Z,20.38
2022-11-15T00:23:18.875Z,24.85
2022-11-15T00:25:45.339Z,20.83
2022-11-15T00:28:11.676Z,21.73
2022-11-15T00:30:38.131Z,23.98
2022-11-15T00:33:05.718Z,20.58
2022-11-15T00:35:34.293Z,22.45
2022-11-15T00:38:01.717Z,24.83
2022-11-15T00:40:28.184Z,23.77
2022-11-15T00:42:58.253Z,19.98
2022-11-15T00:45:25.124Z,21.70
2022-11-15T00:47:54.382Z,21.92
2022-11-15T00:50:20.786Z,23.85
2022-11-15T00:52:47.265Z,23.48
2022-11-15T00:55:17.925Z,21.58
2022-11-15T00:57:44.753Z,23.50
2022-11-15T01:00:11.560Z,24.77
2022-11-15T01:02:40.809Z,22.23
2022-11-15T01:05:07.903Z,23.23
2022-11-15T01:07:34.489Z,23.55
2022-11-15T01:10:01.024Z,23.58
2022-11-15T01:12:27.567Z,21.80
2022-11-15T01:14:53.944Z,24.55
2022-11-15T01:17:20.628Z,22.00
2022-11-15T01:19:47.028Z,25.10
2022-11-15T01:22:13.440Z,26.52
2022-11-15T01:24:39.995Z,26.67
2022-11-15T01:27:06.660Z,25.83
2022-11-15T01:29:33.061Z,22.58
2022-11-15T01:31:59.446Z,26.42
2022-11-15T01:34:28.364Z,27.90
2022-11-15T01:36:54.709Z,24.92
2022-11-15T01:39:21.111Z,20.98
2022-11-15T01:41:47.564Z,28.25
2022-11-15T01:44:43.155Z,20.83
2022-11-15T01:47:23.700Z,26.65
2022-11-15T01:49:55.711Z,25.85
2022-11-15T01:52:25.728Z,24.75
2022-11-15T01:54:59.818Z,24.20
2022-11-15T01:57:26.215Z,21.20
2022-11-15T01:59:52.674Z,25.35
2022-11-15T02:02:19.100Z,24.02
2022-11-15T02:04:48.925Z,24.25
2022-11-15T02:07:22.618Z,24.17
2022-11-15T02:09:50.083Z,25.58
2022-11-15T02:12:20.487Z,23.75
2022-11-15T02:14:53.372Z,26.58
2022-11-15T02:17:44.336Z,28.75
2022-11-15T02:20:35.367Z,26.27
2022-11-15T02:23:22.359Z,26.83
2022-11-15T02:26:03.694Z,26.80
2022-11-15T02:28:45.468Z,25.02
2022-11-15T02:31:29.285Z,27.20
2022-11-15T02:34:13.880Z,26.90
2022-11-15T02:37:11.062Z,28.85
2022-11-15T02:39:49.312Z,28.95
2022-11-15T02:42:46.741Z,26.20
2022-11-15T02:45:20.311Z,26.75
2022-11-15T02:47:50.621Z,25.65
2022-11-15T02:50:23.319Z,26.45
2022-11-15T02:52:50.515Z,28.25
2022-11-15T02:55:49.405Z,28.17
2022-11-15T02:58:43.255Z,25.10
2022-11-15T03:01:12.569Z,28.48
2022-11-15T03:04:01.432Z,32.33
2022-11-15T03:06:53.745Z,31.10
2022-11-15T03:09:34.308Z,30.13
2022-11-15T03:12:08.129Z,28.30
2022-11-15T03:14:49.509Z,30.23
2022-11-15T03:17:28.805Z,28.50
2022-11-15T03:19:57.923Z,27.50
2022-11-15T03:22:28.884Z,28.30
2022-11-15T03:24:59.800Z,32.00
2022-11-15T03:27:32.685Z,28.17
2022-11-15T03:30:02.026Z,29.15
2022-11-15T03:32:35.229Z,34.88
2022-11-15T03:35:05.686Z,28.73
2022-11-15T03:37:43.610Z,26.60
2022-11-15T03:40:11.024Z,31.58
2022-11-15T03:42:48.528Z,28.42
2022-11-15T03:45:24.203Z,24.92
2022-11-15T03:47:59.215Z,28.10
2022-11-15T03:50:26.854Z,29.52
2022-11-15T03:53:06.629Z,29.02
2022-11-15T03:55:33.979Z,27.20
2022-11-15T03:58:01.852Z,29.95
2022-11-15T04:00:29.390Z,26.60
2022-11-15T04:02:55.872Z,33.22
2022-11-15T04:05:22.357Z,27.50
2022-11-15T04:07:48.728Z,25.20
2022-11-15T04:10:15.745Z,28.83
2022-11-15T04:12:48.142Z,25.92
2022-11-15T04:15:17.469Z,27.17
2022-11-15T04:17:46.631Z,28.92
2022-11-15T04:20:42.963Z,26.25
2022-11-15T04:23:35.802Z,29.33
2022-11-15T04:26:05.273Z,24.98
2022-11-15T04:28:31.866Z,26.30
2022-11-15T04:30:58.276Z,25.30
2022-11-15T04:33:24.631Z,25.60
2022-11-15T04:36:10.020Z,27.67
2022-11-15T04:38:41.874Z,26.98
2022-11-15T04:41:08.194Z,27.58
2022-11-15T04:43:34.858Z,22.67
2022-11-15T04:46:01.412Z,22.67
2022-11-15T04:48:27.791Z,23.02
2022-11-15T04:50:54.211Z,24.75
2022-11-15T04:53:20.806Z,25.05
2022-11-15T04:55:52.129Z,23.08
2022-11-15T04:58:18.548Z,23.13
2022-11-15T05:00:44.943Z,21.95
2022-11-15T05:03:30.050Z,21.02
2022-11-15T05:05:57.937Z,23.00
2022-11-15T05:08:24.400Z,24.92
2022-11-15T05:10:50.765Z,22.58
2022-11-15T05:13:17.927Z,25.00
2022-11-15T05:15:55.339Z,21.88
2022-11-15T05:18:23.739Z,24.65
2022-11-15T05:20:50.666Z,24.67
2022-11-15T05:23:17.069Z,19.50
2022-11-15T05:25:43.548Z,22.73
2022-11-15T05:28:09.972Z,21.92
2022-11-15T05:30:36.388Z,22.13
2022-11-15T05:33:02.935Z,21.60
2022-11-15T05:35:39.642Z,21.02
2022-11-15T05:38:06.291Z,21.35
2022-11-15T05:40:33.943Z,20.15
2022-11-15T05:43:02.470Z,20.02
2022-11-15T05:45:29.803Z,19.63
2022-11-15T05:47:59.969Z,19.00
2022-11-15T05:50:26.814Z,20.35
2022-11-15T05:52:53.345Z,22.63
2022-11-15T05:55:19.927Z,19.85
2022-11-15T05:57:48.244Z,18.15
2022-11-15T06:00:14.801Z,19.33
2022-11-15T06:02:41.157Z,19.35
2022-11-15T06:05:07.534Z,19.83
2022-11-15T06:07:33.963Z,20.85
2022-11-15T06:10:00.360Z,20.20
2022-11-15T06:12:26.692Z,21.25
2022-11-15T06:14:52.996Z,17.05
2022-11-15T06:17:19.338Z,19.77
2022-11-15T06:19:45.712Z,18.40
2022-11-15T06:22:12.044Z,18.50
2022-11-15T06:24:38.377Z,20.48
2022-11-15T06:27:04.728Z,20.17
2022-11-15T06:29:31.138Z,17.88
2022-11-15T06:31:57.607Z,21.08
2022-11-15T06:34:23.984Z,20.00
2022-11-15T06:36:50.306Z,20.17
2022-11-15T06:39:17.048Z,21.77
2022-11-15T06:41:43.390Z,19.85
2022-11-15T06:44:10.067Z,19.58
2022-11-15T06:46:36.469Z,22.35
2022-11-15T06:49:06.761Z,17.25
2022-11-15T06:51:35.837Z,19.25
2022-11-15T06:54:02.286Z,17.35
2022-11-15T06:56:31.916Z,18.35
2022-11-15T06:58:58.320Z,19.58
2022-11-15T07:01:27.091Z,19.58
2022-11-15T07:03:53.552Z,18.80
2022-11-15T07:06:19.981Z,19.35
2022-11-15T07:08:46.611Z,17.85
2022-11-15T07:11:13.004Z,18.50
2022-11-15T07:13:39.382Z,21.77
2022-11-15T07:16:08.323Z,17.83
2022-11-15T07:18:39.946Z,19.58
2022-11-15T07:21:09.120Z,21.13
2022-11-15T07:23:39.222Z,21.17
2022-11-15T07:26:06.173Z,22.80
2022-11-15T07:28:32.822Z,16.63
2022-11-15T07:31:02.356Z,17.80
2022-11-15T07:33:28.986Z,17.65
2022-11-15T07:35:59.809Z,17.30
2022-11-15T07:38:26.191Z,16.98
2022-11-15T07:41:00.632Z,18.70
2022-11-15T07:43:28.917Z,16.35
2022-11-15T07:45:59.077Z,20.58
2022-11-15T07:48:27.346Z,20.27
2022-11-15T07:50:58.445Z,15.63
2022-11-15T07:53:24.772Z,22.23
2022-11-15T07:55:51.257Z,19.38
2022-11-15T07:58:18.683Z,16.23
2022-11-15T08:00:45.176Z,15.50
2022-11-15T08:03:14.220Z,17.13
2022-11-15T08:05:42.193Z,16.70
2022-11-15T08:08:10.609Z,16.25
2022-11-15T08:10:40.587Z,19.23
2022-11-15T08:13:09.728Z,14.18
2022-11-15T08:15:37.364Z,14.43
2022-11-15T08:18:15.687Z,15.27
2022-11-15T08:20:43.130Z,14.32
2022-11-15T08:23:14.024Z,15.70
2022-11-15T08:25:40.541Z,14.00
2022-11-15T08:28:08.654Z,15.68
2022-11-15T08:30:37.555Z,19.23
2022-11-15T08:33:04.387Z,15.25
2022-11-15T08:35:30.718Z,14.40
2022-11-15T08:37:57.162Z,14.07
2022-11-15T08:40:25.124Z,15.48
2022-11-15T08:42:51.557Z,12.80
2022-11-15T08:45:17.922Z,13.73
2022-11-15T08:47:48.547Z,12.93
2022-11-15T08:50:19.578Z,11.52
2022-11-15T08:52:45.972Z,14.25
2022-11-15T08:55:12.348Z,12.25
2022-11-15T08:57:40.775Z,12.90
2022-11-15T09:00:07.828Z,11.73
2022-11-15T09:02:34.158Z,13.07
2022-11-15T09:05:00.594Z,11.85
2022-11-15T09:07:27.182Z,11.85
2022-11-15T09:09:53.538Z,10.25
2022-11-15T09:12:19.982Z,10.75
2022-11-15T09:14:46.335Z,10.40
2022-11-15T09:17:12.709Z,10.32
2022-11-15T09:19:39.406Z,9.32
2022-11-15T09:22:09.579Z,9.40
2022-11-15T09:24:36.329Z,8.45
2022-11-15T09:27:02.864Z,8.77
2022-11-15T09:29:29.218Z,9.63
2022-11-15T09:31:55.669Z,8.05
2022-11-15T09:34:22.066Z,9.75
2022-11-15T09:36:48.390Z,7.97
2022-11-15T09:39:14.857Z,8.25
2022-11-15T09:41:53.065Z,6.65
2022-11-15T09:44:50.541Z,7.57
2022-11-15T09:47:50.476Z,7.43
2022-11-15T09:50:28.006Z,7.45
2022-11-15T09:52:56.101Z,6.60
2022-11-15T09:55:36.203Z,6.35
2022-11-15T09:58:16.675Z,6.35
2022-11-15T10:00:49.502Z,6.60
2022-11-15T10:03:23.705Z,6.60
2022-11-15T10:05:55.407Z,5.70
2022-11-15T10:08:32.205Z,6.93
2022-11-15T10:11:37.858Z,7.00
2022-11-15T10:14:23.020Z,4.85
2022-11-15T10:17:15.071Z,4.85
2022-11-15T10:22:33.280Z,4.53
2022-11-15T10:25:25.426Z,5.32
2022-11-15T10:30:22.355Z,4.55
2022-11-15T10:32:50.427Z,5.28
2022-11-15T10:35:23.518Z,4.35
2022-11-15T10:37:50.079Z,4.13
2022-11-15T10:40:23.004Z,4.05
2022-11-15T10:43:06.506Z,3.60
2022-11-15T10:45:36.666Z,4.70
2022-11-15T10:48:14.987Z,4.82
2022-11-15T10:50:44.111Z,3.45
2022-11-15T10:53:23.649Z,3.75
2022-11-15T10:55:53.529Z,4.53
2022-11-15T10:58:35.669Z,3.70
2022-11-15T11:01:17.777Z,4.03
2022-11-15T11:03:46.827Z,3.63
2022-11-15T11:06:19.037Z,3.25
2022-11-15T11:09:05.523Z,3.60
2022-11-15T11:11:51.521Z,3.10
2022-11-15T11:14:24.356Z,2.90
2022-11-15T11:16:55.730Z,2.80
2022-11-15T11:20:04.676Z,2.60
2022-11-15T11:23:11.314Z,2.53
2022-11-15T11:25:55.630Z,2.60
2022-11-15T11:28:49.575Z,2.95
2022-11-15T11:32:11.576Z,2.72
2022-11-15T11:34:56.348Z,2.28
2022-11-15T11:37:44.415Z,2.33
2022-11-15T11:40:33.338Z,1.58
2022-11-15T11:43:14.397Z,2.05
2022-11-15T11:45:53.025Z,1.55
2022-11-15T11:48:37.834Z,2.10
2022-11-15T11:51:13.296Z,1.63
2022-11-15T11:53:58.708Z,2.45
2022-11-15T11:56:33.296Z,1.65
2022-11-15T11:59:07.820Z,1.60
2022-11-15T12:01:40.498Z,1.90
2022-11-15T12:04:16.077Z,1.85
2022-11-15T12:06:58.760Z,1.48
2022-11-15T12:09:43.362Z,1.92
2022-11-15T12:12:49.539Z,1.80
2022-11-15T12:15:24.859Z,1.27
2022-11-15T12:17:51.413Z,2.83
2022-11-15T12:20:20.134Z,1.40
2022-11-15T12:22:55.854Z,1.60
2022-11-15T12:25:25.780Z,1.83
2022-11-15T12:28:02.788Z,2.17
2022-11-15T12:30:46.622Z,1.40
2022-11-15T12:33:32.930Z,3.13
2022-11-15T12:36:11.037Z,1.90
2022-11-15T12:38:52.466Z,2.72
2022-11-15T12:41:20.759Z,1.15
2022-11-15T12:43:49.038Z,1.77
2022-11-15T12:46:29.558Z,1.83
2022-11-15T12:49:32.153Z,2.38
2022-11-15T12:51:58.608Z,1.85
2022-11-15T12:54:30.188Z,1.30
2022-11-15T12:57:08.691Z,2.00
2022-11-15T13:00:02.820Z,1.40
2022-11-15T13:02:32.129Z,1.30
2022-11-15T13:05:17.108Z,1.17
2022-11-15T13:07:43.711Z,1.85
2022-11-15T13:10:13.286Z,1.23
2022-11-15T13:12:41.818Z,1.58
2022-11-15T13:15:14.322Z,1.63
2022-11-15T13:17:48.825Z,1.45
2022-11-15T13:20:15.353Z,1.40
2022-11-15T13:22:51.956Z,1.50
2022-11-15T13:25:53.946Z,2.38
2022-11-15T13:28:33.055Z,1.13
2022-11-15T13:31:24.331Z,1.27
2022-11-15T13:33:51.428Z,1.60
2022-11-15T13:36:28.338Z,1.00
2022-11-15T13:39:00.281Z,1.48
2022-11-15T13:41:30.266Z,1.92
2022-11-15T13:43:58.063Z,1.27
2022-11-15T13:46:26.882Z,1.20
2022-11-15T13:48:56.697Z,1.63
2022-11-15T13:51:38.985Z,1.35
2022-11-15T13:54:17.823Z,1.27
2022-11-15T13:56:58.267Z,1.77
2022-11-15T13:59:29.931Z,1.85
2022-11-15T14:01:58.460Z,2.80
2022-11-15T14:04:27.334Z,1.50
2022-11-15T14:06:58.400Z,1.75
2022-11-15T14:09:34.631Z,1.40
2022-11-15T14:12:03.219Z,1.48
2022-11-15T14:14:30.728Z,2.22
2022-11-15T14:17:00.102Z,1.67
2022-11-15T14:19:26.552Z,2.05
2022-11-15T14:22:16.401Z,2.00
2022-11-15T14:25:03.012Z,1.88
2022-11-15T14:27:30.107Z,1.48
2022-11-15T14:29:56.558Z,2.78
2022-11-15T14:32:26.724Z,2.70
2022-11-15T14:34:59.814Z,1.60
2022-11-15T14:37:27.357Z,1.48
2022-11-15T14:39:56.831Z,3.03
2022-11-15T14:42:24.044Z,2.33
2022-11-15T14:44:51.181Z,2.20
2022-11-15T14:47:18.085Z,1.75
2022-11-15T14:49:45.006Z,2.35
2022-11-15T14:52:31.579Z,2.03
2022-11-15T14:55:00.040Z,22.30
2022-11-15T14:57:26.517Z,1.88
2022-11-15T14:59:53.894Z,1.98
2022-11-15T15:02:29.201Z,1.67
2022-11-15T15:04:55.648Z,1.25
2022-11-15T15:07:23.035Z,1.50
2022-11-15T15:09:49.593Z,1.70
2022-11-15T15:12:20.448Z,2.45
2022-11-15T15:14:48.087Z,1.95
2022-11-15T15:17:15.368Z,1.00
2022-11-15T15:19:42.408Z,1.67
2022-11-15T15:22:30.218Z,1.70
2022-11-15T15:24:56.624Z,1.58
2022-11-15T15:27:22.953Z,1.90
2022-11-15T15:29:49.427Z,2.50
2022-11-15T15:32:15.861Z,1.83
2022-11-15T15:34:42.255Z,1.52
2022-11-15T15:37:09.705Z,1.77
2022-11-15T15:39:36.061Z,1.60
2022-11-15T15:42:04.836Z,1.77
2022-11-15T15:44:51.935Z,1.80
2022-11-15T15:47:32.432Z,2.38
2022-11-15T15:51:09.123Z,1.83
2022-11-15T15:54:08.707Z,1.30
2022-11-15T15:59:58.668Z,1.70
2022-11-15T16:02:36.290Z,1.48
2022-11-15T16:05:21.143Z,1.73
2022-11-15T16:08:05.885Z,1.73
2022-11-15T16:10:35.404Z,2.90
2022-11-15T16:13:01.978Z,3.10
2022-11-15T16:15:31.583Z,2.53
2022-11-15T16:18:00.269Z,1.70
2022-11-15T16:20:38.037Z,2.33
2022-11-15T16:23:09.405Z,1.48
2022-11-15T16:25:50.688Z,2.00
2022-11-15T16:28:22.493Z,2.00
2022-11-15T16:30:55.530Z,1.65
2022-11-15T16:33:23.192Z,1.52
2022-11-15T16:35:49.550Z,1.30
2022-11-15T16:38:16.581Z,2.13
2022-11-15T16:40:43.379Z,1.45
2022-11-15T16:43:11.490Z,2.55
2022-11-15T16:45:38.182Z,1.52
2022-11-15T16:48:04.867Z,2.00
2022-11-15T16:50:35.054Z,2.33
2022-11-15T16:53:01.905Z,2.17
2022-11-15T16:55:29.519Z,2.58
2022-11-15T16:57:58.076Z,2.53
2022-11-15T17:00:25.529Z,2.65
2022-11-15T17:02:52.519Z,1.75
2022-11-15T17:05:21.705Z,1.60
2022-11-15T17:07:50.443Z,2.35
2022-11-15T17:10:17.246Z,1.80
2022-11-15T17:12:43.652Z,1.95
2022-11-15T17:15:12.870Z,3.00
2022-11-15T17:17:40.406Z,1.92
2022-11-15T17:20:13.839Z,1.33
2022-11-15T17:22:40.228Z,1.88
2022-11-15T17:25:07.077Z,2.28
2022-11-15T17:27:33.407Z,2.08
2022-11-15T17:29:59.803Z,1.92
2022-11-15T17:32:26.258Z,2.92
2022-11-15T17:34:52.631Z,2.75
2022-11-15T17:37:21.839Z,2.72
2022-11-15T17:39:48.223Z,1.98
2022-11-15T17:42:14.584Z,2.28
2022-11-15T17:44:41.101Z,2.10
2022-11-15T17:47:08.443Z,2.30
2022-11-15T17:49:39.273Z,1.88
2022-11-15T17:52:05.793Z,2.28
2022-11-15T17:54:32.125Z,2.38
2022-11-15T17:56:58.481Z,2.65
2022-11-15T17:59:24.855Z,2.30
2022-11-15T18:01:51.442Z,2.15
2022-11-15T18:04:17.904Z,2.05
2022-11-15T18:06:44.369Z,2.40
2022-11-15T18:09:10.933Z,4.93
2022-11-15T18:11:40.934Z,2.42
2022-11-15T18:14:12.635Z,2.70
2022-11-15T18:16:40.218Z,2.50
2022-11-15T18:19:11.437Z,3.50
2022-11-15T18:21:56.002Z,2.40
2022-11-15T18:24:30.518Z,2.50
2022-11-15T18:26:58.667Z,2.85
2022-11-15T18:29:25.720Z,2.58
2022-11-15T18:31:56.371Z,2.90
2022-11-15T18:34:33.784Z,4.72
2022-11-15T18:37:02.962Z,3.88
2022-11-15T18:39:30.152Z,4.28
2022-11-15T18:41:56.776Z,4.70
2022-11-15T18:44:23.309Z,3.28
2022-11-15T18:46:50.959Z,4.30
2022-11-15T18:49:17.893Z,3.08
2022-11-15T18:51:44.347Z,2.90
2022-11-15T18:54:13.913Z,3.25
2022-11-15T18:56:40.887Z,3.42
2022-11-15T18:59:08.627Z,3.08
2022-11-15T19:01:37.932Z,3.72
2022-11-15T19:04:12.896Z,3.33
2022-11-15T19:06:43.895Z,2.67
2022-11-15T19:09:12.235Z,3.30
2022-11-15T19:11:39.955Z,5.57
2022-11-15T19:14:07.528Z,5.20
2022-11-15T19:16:39.192Z,4.07
2022-11-15T19:19:07.821Z,3.53
2022-11-15T19:21:34.950Z,2.95
2022-11-15T19:24:01.872Z,3.33
2022-11-15T19:26:29.216Z,3.28
2022-11-15T19:28:59.324Z,3.75
2022-11-15T19:31:28.171Z,4.18
2022-11-15T19:33:55.556Z,4.28
2022-11-15T19:36:32.570Z,4.10
2022-11-15T19:39:04.929Z,3.95
2022-11-15T19:41:31.448Z,4.10
2022-11-15T19:43:57.965Z,5.05
2022-11-15T19:46:24.603Z,4.30
2022-11-15T19:48:51.716Z,5.18
2022-11-15T19:51:23.782Z,4.60
2022-11-15T19:56:19.865Z,4.35
2022-11-15T19:58:46.945Z,4.72
2022-11-15T20:01:23.454Z,4.25
2022-11-15T20:03:53.524Z,4.47
2022-11-15T20:06:25.478Z,4.30
2022-11-15T20:08:52.767Z,6.00
2022-11-15T20:11:19.703Z,6.72
2022-11-15T20:13:46.252Z,4.15
2022-11-15T20:16:20.907Z,4.75
2022-11-15T20:18:50.069Z,5.68
2022-11-15T20:21:17.343Z,5.20
2022-11-15T20:23:44.270Z,6.20
2022-11-15T20:26:11.425Z,5.65
2022-11-15T20:28:39.100Z,7.53
2022-11-15T20:31:06.324Z,8.05
2022-11-15T20:33:33.138Z,8.52
2022-11-15T20:36:04.331Z,8.35
2022-11-15T20:38:30.988Z,6.77
2022-11-15T20:41:00.341Z,8.02
2022-11-15T20:43:27.164Z,5.38
2022-11-15T20:45:53.567Z,7.05
2022-11-15T20:48:20.070Z,6.35
2022-11-15T20:50:47.303Z,6.68
2022-11-15T20:53:16.365Z,6.57
2022-11-15T20:55:47.549Z,7.10
2022-11-15T20:58:15.069Z,7.07
2022-11-15T21:00:43.084Z,6.70
2022-11-15T21:03:09.809Z,6.53
2022-11-15T21:05:41.109Z,6.15
2022-11-15T21:08:09.156Z,6.43
2022-11-15T21:10:53.927Z,5.65
2022-11-15T21:13:22.942Z,6.57
2022-11-15T21:15:49.493Z,7.28
2022-11-15T21:18:16.363Z,6.70
2022-11-15T21:20:43.050Z,5.80
2022-11-15T21:23:09.501Z,5.85
2022-11-15T21:25:35.869Z,5.88
2022-11-15T21:28:02.891Z,5.50
2022-11-15T21:30:29.672Z,7.10
2022-11-15T21:32:56.097Z,6.38
2022-11-15T21:35:23.689Z,5.75
2022-11-15T21:37:56.179Z,6.72
2022-11-15T21:40:23.479Z,7.30
2022-11-15T21:42:49.841Z,6.93
2022-11-15T21:45:16.563Z,6.55
2022-11-15T21:47:46.045Z,8.23
2022-11-15T21:50:13.065Z,6.93
2022-11-15T21:52:41.738Z,6.45
2022-11-15T21:55:09.059Z,8.13
2022-11-15T21:57:35.451Z,7.78
2022-11-15T22:00:20.153Z,6.22
2022-11-15T22:02:46.485Z,6.72
2022-11-15T22:05:12.821Z,8.00
2022-11-15T22:07:41.834Z,7.00
2022-11-15T22:10:08.541Z,7.10
2022-11-15T22:12:34.992Z,7.55
2022-11-15T22:15:01.422Z,8.07
2022-11-15T22:17:47.859Z,7.90
2022-11-15T22:20:42.964Z,7.50
2022-11-15T22:23:02.104Z,7.15
2022-11-15T22:25:29.063Z,8.60
2022-11-15T22:27:55.474Z,7.50
2022-11-15T22:30:22.779Z,9.55
2022-11-15T22:32:49.203Z,9.07
2022-11-15T22:35:16.063Z,8.40
2022-11-15T22:37:43.972Z,7.55
2022-11-15T22:40:10.512Z,8.27
2022-11-15T22:42:36.847Z,8.43
2022-11-15T22:45:03.652Z,7.25
2022-11-15T22:47:30.025Z,9.00
2022-11-15T22:49:58.735Z,10.35
2022-11-15T22:52:25.144Z,9.93
2022-11-15T22:54:51.626Z,10.23
2022-11-15T22:57:18.651Z,8.57
2022-11-15T22:59:45.033Z,10.25
2022-11-15T23:02:11.504Z,9.07
2022-11-15T23:04:40.308Z,9.57
2022-11-15T23:07:06.774Z,7.95
2022-11-15T23:09:33.231Z,8.90
2022-11-15T23:12:18.633Z,7.57
2022-11-15T23:14:45.132Z,9.82
2022-11-15T23:17:11.531Z,6.25
2022-11-15T23:19:38.029Z,8.73
2022-11-15T23:22:22.797Z,8.23
2022-11-15T23:24:49.216Z,7.57
2022-11-15T23:27:19.737Z,10.20
2022-11-15T23:30:05.444Z,9.60
2022-11-15T23:32:50.291Z,8.15
2022-11-15T23:35:17.145Z,8.63
2022-11-15T23:37:43.536Z,9.55
2022-11-15T23:40:10.728Z,8.27
2022-11-15T23:42:44.280Z,8.70
2022-11-15T23:45:11.176Z,8.88
2022-11-15T23:47:37.553Z,9.50
2022-11-15T23:50:04.257Z,8.23
2022-11-15T23:52:30.801Z,7.82
2022-11-15T23:54:57.274Z,8.77
2022-11-15T23:57:23.687Z,7.40
2022-11-15T23:59:50.033Z,8.48
